Time;durP1;ratioP1;P1;durP2;ratioP2;P2;SDS_P1;SDS_P2;PMS_P1;PMS_P2;Temp;Humidity;BMP_temperature;BMP_pressure;BME280_temperature;BME280_humidity;BME280_pressure;Samples;Min_cycle;Max_cycle;Signal;HPM_P1;HPM_P2
2023/04/01 00:01:06;;;;;;;2.50;0.90;;;;;;;;;;5070909;28;20255;-66
2023/04/01 00:03:35;;;;;;;2.47;0.90;;;;;;;;;;5069735;28;20692;-66
2023/04/01 00:06:04;;;;;;;1.33;1.00;;;;;;;;;;5070643;28;20203;-66
2023/04/01 00:08:33;;;;;;;2.65;1.10;;;;;;;;;;5070870;28;20264;-68
2023/04/01 00:11:01;;;;;;;6.07;1.27;;;;;;;;;;5071483;28;20565;-68
2023/04/01 00:13:29;;;;;;;3.63;0.90;;;;;;;;;;5070989;28;20199;-67
2023/04/01 00:15:57;;;;;;;1.45;1.00;;;;;;;;;;5071029;28;20690;-67
2023/04/01 00:18:26;;;;;;;3.35;1.10;;;;;;;;;;5070109;28;20218;-68
2023/04/01 00:20:54;;;;;;;3.15;1.25;;;;;;;;;;5071407;28;20227;-67
2023/04/01 00:23:24;;;;;;;3.55;0.90;;;;;;;;;;5069701;28;20479;-67
2023/04/01 00:25:52;;;;;;;5.63;2.00;;;;;;;;;;5060823;28;20200;-66
2023/04/01 00:28:21;;;;;;;4.20;1.25;;;;;;;;;;5067863;28;20204;-68
2023/04/01 00:30:49;;;;;;;3.42;1.25;;;;;;;;;;5070853;28;20196;-67
2023/04/01 00:33:17;;;;;;;4.75;1.25;;;;;;;;;;5070043;28;20241;-66
2023/04/01 00:35:46;;;;;;;1.30;1.02;;;;;;;;;;5058241;28;20590;-67
2023/04/01 00:38:14;;;;;;;3.38;1.15;;;;;;;;;;5052922;28;20207;-66
2023/04/01 00:40:44;;;;;;;5.40;1.13;;;;;;;;;;5066322;28;20446;-67
2023/04/01 00:43:15;;;;;;;1.35;1.15;;;;;;;;;;5070850;28;20192;-67
2023/04/01 00:45:45;;;;;;;3.28;0.90;;;;;;;;;;5068154;28;20230;-67
2023/04/01 00:48:15;;;;;;;8.13;1.83;;;;;;;;;;5068217;28;20198;-67
2023/04/01 00:50:45;;;;;;;4.63;1.48;;;;;;;;;;5068018;28;20195;-67
2023/04/01 00:53:14;;;;;;;2.75;1.02;;;;;;;;;;5058110;28;20256;-67
2023/04/01 00:55:45;;;;;;;5.43;1.40;;;;;;;;;;5057967;28;20610;-67
2023/04/01 00:58:16;;;;;;;1.98;1.10;;;;;;;;;;5073692;28;20642;-67
2023/04/01 01:00:44;;;;;;;4.43;1.60;;;;;;;;;;5074014;28;20192;-67
2023/04/01 01:03:13;;;;;;;1.50;0.90;;;;;;;;;;5073674;28;20211;-67
2023/04/01 01:05:52;;;;;;;5.18;1.30;;;;;;;;;;5073918;28;20218;-67
2023/04/01 01:08:27;;;;;;;3.45;1.70;;;;;;;;;;5073817;28;20192;-68
2023/04/01 01:10:56;;;;;;;2.45;1.10;;;;;;;;;;5074056;28;20188;-66
2023/04/01 01:13:28;;;;;;;2.45;1.67;;;;;;;;;;5074249;28;20218;-67
2023/04/01 01:15:59;;;;;;;4.63;1.65;;;;;;;;;;5073883;28;20184;-66
2023/04/01 01:18:31;;;;;;;3.92;1.00;;;;;;;;;;5074578;28;20188;-65
2023/04/01 01:21:17;;;;;;;8.98;1.52;;;;;;;;;;5073393;28;20705;-68
2023/04/01 01:23:58;;;;;;;2.75;1.00;;;;;;;;;;5074381;28;20252;-68
2023/04/01 01:26:44;;;;;;;5.00;1.30;;;;;;;;;;5072855;28;20188;-68
2023/04/01 01:29:18;;;;;;;2.40;1.23;;;;;;;;;;5074377;28;20260;-68
2023/04/01 01:31:52;;;;;;;1.30;0.88;;;;;;;;;;5073590;28;20201;-68
2023/04/01 01:34:24;;;;;;;5.10;1.30;;;;;;;;;;5068495;28;20197;-67
2023/04/01 01:36:56;;;;;;;3.20;1.23;;;;;;;;;;5052483;28;20205;-67
2023/04/01 01:39:27;;;;;;;3.20;1.17;;;;;;;;;;5054011;28;20651;-68
2023/04/01 01:41:57;;;;;;;4.03;1.10;;;;;;;;;;5052411;28;20197;-65
2023/04/01 01:44:27;;;;;;;2.65;1.25;;;;;;;;;;5052726;28;20208;-67
2023/04/01 01:46:56;;;;;;;2.35;1.33;;;;;;;;;;5052254;28;20185;-67
2023/04/01 01:49:25;;;;;;;2.45;1.33;;;;;;;;;;5054221;28;20208;-67
2023/04/01 01:51:55;;;;;;;4.07;1.70;;;;;;;;;;5072368;28;20234;-67
2023/04/01 01:54:25;;;;;;;2.35;1.10;;;;;;;;;;5072585;28;20237;-67
2023/04/01 01:56:57;;;;;;;12.57;1.50;;;;;;;;;;5071681;28;20310;-65
2023/04/01 01:59:26;;;;;;;2.67;1.15;;;;;;;;;;5072041;28;20188;-67
2023/04/01 02:01:58;;;;;;;5.20;1.33;;;;;;;;;;5071235;28;20658;-65
2023/04/01 02:04:27;;;;;;;4.63;1.25;;;;;;;;;;5070614;28;20665;-67
2023/04/01 02:06:58;;;;;;;2.30;0.93;;;;;;;;;;5073635;28;20220;-67
2023/04/01 02:09:26;;;;;;;5.47;1.42;;;;;;;;;;5071329;28;20218;-68
2023/04/01 02:11:57;;;;;;;2.15;1.00;;;;;;;;;;5072188;28;20538;-68
2023/04/01 02:14:27;;;;;;;5.65;1.08;;;;;;;;;;5073086;28;20587;-67
2023/04/01 02:16:58;;;;;;;4.90;1.17;;;;;;;;;;5072966;28;20280;-67
2023/04/01 02:19:27;;;;;;;3.08;1.10;;;;;;;;;;5073142;28;20257;-67
2023/04/01 02:21:59;;;;;;;2.28;1.15;;;;;;;;;;5071805;28;20699;-67
2023/04/01 02:24:28;;;;;;;6.35;1.20;;;;;;;;;;5071602;28;20192;-67
2023/04/01 02:26:57;;;;;;;7.75;1.20;;;;;;;;;;5072132;28;20657;-67
2023/04/01 02:29:26;;;;;;;1.77;1.15;;;;;;;;;;5053256;28;20196;-67
2023/04/01 02:31:55;;;;;;;4.05;2.00;;;;;;;;;;5068745;28;20203;-67
2023/04/01 02:34:24;;;;;;;4.22;1.10;;;;;;;;;;5070841;28;20206;-67
2023/04/01 02:36:54;;;;;;;3.05;1.67;;;;;;;;;;5054450;28;20220;-67
2023/04/01 02:39:25;;;;;;;2.13;1.10;;;;;;;;;;5053350;28;20205;-67
2023/04/01 02:41:54;;;;;;;2.85;1.20;;;;;;;;;;5071266;28;20192;-67
2023/04/01 02:44:22;;;;;;;4.28;1.25;;;;;;;;;;5072325;28;20208;-65
2023/04/01 02:46:50;;;;;;;7.03;2.25;;;;;;;;;;5059468;28;20565;-67
2023/04/01 02:49:18;;;;;;;2.08;1.33;;;;;;;;;;5072427;28;20553;-67
2023/04/01 02:51:47;;;;;;;1.88;1.20;;;;;;;;;;5061681;28;20201;-67
2023/04/01 02:54:15;;;;;;;1.88;1.10;;;;;;;;;;5051422;28;20209;-68
2023/04/01 02:56:46;;;;;;;2.08;1.02;;;;;;;;;;5062696;28;20196;-69
2023/04/01 02:59:14;;;;;;;3.33;1.10;;;;;;;;;;5071336;28;20200;-68
2023/04/01 03:01:42;;;;;;;4.07;1.20;;;;;;;;;;5068777;28;20208;-66
2023/04/01 03:04:11;;;;;;;5.57;1.20;;;;;;;;;;5067301;28;20196;-67
2023/04/01 03:06:39;;;;;;;2.65;1.73;;;;;;;;;;5071502;28;20249;-68
2023/04/01 03:09:07;;;;;;;1.20;1.10;;;;;;;;;;5054599;28;20218;-68
2023/04/01 03:11:36;;;;;;;2.85;0.90;;;;;;;;;;5071669;28;20540;-68
2023/04/01 03:14:06;;;;;;;2.40;1.88;;;;;;;;;;5071462;28;20222;-67
2023/04/01 03:16:35;;;;;;;3.08;0.80;;;;;;;;;;5068701;28;20315;-67
2023/04/01 03:19:03;;;;;;;3.70;1.30;;;;;;;;;;5053693;28;20212;-67
2023/04/01 03:21:31;;;;;;;6.30;1.60;;;;;;;;;;5064322;28;20201;-68
2023/04/01 03:24:00;;;;;;;5.40;2.00;;;;;;;;;;5065664;28;20202;-67
2023/04/01 03:26:30;;;;;;;3.25;1.27;;;;;;;;;;5070186;28;20203;-67
2023/04/01 03:28:59;;;;;;;4.40;1.30;;;;;;;;;;5070578;28;20199;-67
2023/04/01 03:31:28;;;;;;;3.33;0.88;;;;;;;;;;5070839;28;20211;-67
2023/04/01 03:33:58;;;;;;;3.63;1.45;;;;;;;;;;5072176;28;20574;-67
2023/04/01 03:36:27;;;;;;;3.65;1.40;;;;;;;;;;5065540;28;20245;-67
2023/04/01 03:38:55;;;;;;;5.32;1.27;;;;;;;;;;5070328;28;20220;-67
2023/04/01 03:41:33;;;;;;;2.08;1.10;;;;;;;;;;5053686;28;20541;-67
2023/04/01 03:44:02;;;;;;;3.25;2.13;;;;;;;;;;5070540;28;20208;-67
2023/04/01 03:46:31;;;;;;;3.80;1.20;;;;;;;;;;5069430;28;20271;-68
2023/04/01 03:49:00;;;;;;;4.38;1.30;;;;;;;;;;5070067;28;20207;-68
2023/04/01 03:51:28;;;;;;;5.05;0.88;;;;;;;;;;5070953;28;20208;-68
2023/04/01 03:53:57;;;;;;;2.03;0.80;;;;;;;;;;5070076;28;20207;-68
2023/04/01 03:56:25;;;;;;;2.10;0.93;;;;;;;;;;5071213;28;20252;-67
2023/04/01 03:58:53;;;;;;;2.92;0.90;;;;;;;;;;5069966;28;20224;-67
2023/04/01 04:01:22;;;;;;;4.53;1.00;;;;;;;;;;5069303;28;20206;-67
2023/04/01 04:03:55;;;;;;;3.78;1.05;;;;;;;;;;5070703;28;20188;-67
2023/04/01 04:06:24;;;;;;;2.45;1.30;;;;;;;;;;5069501;28;20191;-67
2023/04/01 04:08:53;;;;;;;4.80;1.00;;;;;;;;;;5070284;28;20200;-67
2023/04/01 04:11:22;;;;;;;4.78;0.90;;;;;;;;;;5069466;28;20218;-66
2023/04/01 04:13:53;;;;;;;2.58;1.45;;;;;;;;;;5070338;28;20190;-67
2023/04/01 04:16:22;;;;;;;7.55;1.08;;;;;;;;;;5069803;28;20206;-66
2023/04/01 04:18:58;;;;;;;1.52;1.13;;;;;;;;;;5069560;28;20211;-67
2023/04/01 04:21:26;;;;;;;3.25;1.15;;;;;;;;;;5069536;28;20241;-68
2023/04/01 04:23:54;;;;;;;1.23;1.13;;;;;;;;;;5064963;28;20214;-66
2023/04/01 04:26:23;;;;;;;2.15;1.20;;;;;;;;;;5069215;28;20214;-69
2023/04/01 04:29:01;;;;;;;3.10;0.90;;;;;;;;;;5070805;28;20428;-67
2023/04/01 04:31:30;;;;;;;2.40;1.00;;;;;;;;;;5068844;28;22547;-66
2023/04/01 04:34:02;;;;;;;4.03;1.10;;;;;;;;;;5068014;28;20634;-67
2023/04/01 04:36:33;;;;;;;5.50;1.00;;;;;;;;;;5061801;28;20193;-67
2023/04/01 04:39:03;;;;;;;3.25;1.00;;;;;;;;;;5070767;28;20216;-66
2023/04/01 04:41:32;;;;;;;1.90;0.80;;;;;;;;;;5049700;28;20218;-68
2023/04/01 04:44:00;;;;;;;6.07;1.23;;;;;;;;;;5065819;28;20213;-68
2023/04/01 04:46:29;;;;;;;1.75;1.30;;;;;;;;;;5065208;28;20243;-67
2023/04/01 04:49:11;;;;;;;3.45;1.50;;;;;;;;;;5065887;28;20187;-67
2023/04/01 04:51:40;;;;;;;2.75;1.10;;;;;;;;;;5049225;28;20208;-68
2023/04/01 04:54:08;;;;;;;2.35;1.13;;;;;;;;;;5048525;28;20199;-68
2023/04/01 04:56:53;;;;;;;4.90;1.42;;;;;;;;;;5048728;28;20222;-67
2023/04/01 04:59:22;;;;;;;5.18;1.50;;;;;;;;;;5049400;28;20235;-67
2023/04/01 05:02:00;;;;;;;3.45;1.85;;;;;;;;;;5048606;28;20643;-67
2023/04/01 05:04:31;;;;;;;11.27;7.25;;;;;;;;;;5047922;28;20204;-67
2023/04/01 05:06:59;;;;;;;11.15;6.65;;;;;;;;;;5049156;28;20208;-68
2023/04/01 05:09:27;;;;;;;9.90;6.90;;;;;;;;;;5048926;28;20271;-68
2023/04/01 05:11:56;;;;;;;72.95;40.72;;;;;;;;;;5049614;28;20284;-68
2023/04/01 05:14:26;;;;;;;21.73;10.65;;;;;;;;;;5065724;28;20205;-68
2023/04/01 05:17:01;;;;;;;137.48;80.90;;;;;;;;;;5049500;28;20193;-67
2023/04/01 05:19:31;;;;;;;52.10;34.03;;;;;;;;;;5048365;28;20282;-67
2023/04/01 05:21:59;;;;;;;12.75;7.22;;;;;;;;;;5050935;28;20209;-67
2023/04/01 05:24:27;;;;;;;4.30;3.55;;;;;;;;;;5048880;28;20205;-68
2023/04/01 05:26:56;;;;;;;8.50;3.67;;;;;;;;;;5049738;28;20234;-68
2023/04/01 05:29:24;;;;;;;4.22;1.58;;;;;;;;;;5048462;28;20205;-66
2023/04/01 05:31:58;;;;;;;16.50;10.77;;;;;;;;;;5068652;28;20203;-69
2023/04/01 05:34:27;;;;;;;18.85;8.23;;;;;;;;;;5070111;28;20210;-67
2023/04/01 05:36:56;;;;;;;5.80;2.70;;;;;;;;;;5065037;28;20257;-67
2023/04/01 05:39:24;;;;;;;2.85;1.80;;;;;;;;;;5059395;28;20224;-66
2023/04/01 05:41:53;;;;;;;2.60;1.42;;;;;;;;;;5062210;28;20736;-66
2023/04/01 05:44:21;;;;;;;3.58;1.50;;;;;;;;;;5070306;28;20199;-69
2023/04/01 05:47:05;;;;;;;1.95;0.80;;;;;;;;;;5068856;28;20204;-68
2023/04/01 05:49:35;;;;;;;3.33;1.48;;;;;;;;;;5071848;28;20200;-68
2023/04/01 05:52:05;;;;;;;1.10;0.95;;;;;;;;;;5066627;28;20201;-68
2023/04/01 05:54:37;;;;;;;3.75;1.20;;;;;;;;;;5065415;28;20669;-69
2023/04/01 05:57:05;;;;;;;3.90;1.25;;;;;;;;;;5073919;28;20273;-68
2023/04/01 05:59:34;;;;;;;4.38;1.27;;;;;;;;;;5055776;28;20220;-68
2023/04/01 06:02:03;;;;;;;4.18;1.45;;;;;;;;;;5040672;28;20215;-68
2023/04/01 06:04:34;;;;;;;2.25;1.10;;;;;;;;;;5052299;28;20547;-68
2023/04/01 06:07:02;;;;;;;2.83;0.98;;;;;;;;;;5051811;28;20196;-67
2023/04/01 06:09:32;;;;;;;3.97;1.25;;;;;;;;;;5052106;28;20203;-68
2023/04/01 06:12:17;;;;;;;4.15;0.90;;;;;;;;;;5068480;28;20261;-67
2023/04/01 06:14:59;;;;;;;1.30;0.80;;;;;;;;;;5072096;28;20196;-67
2023/04/01 06:17:31;;;;;;;2.85;1.02;;;;;;;;;;5072915;28;20551;-68
2023/04/01 06:20:05;;;;;;;1.98;1.38;;;;;;;;;;5073500;28;20234;-68
2023/04/01 06:22:49;;;;;;;3.65;1.25;;;;;;;;;;5051459;28;20185;-68
2023/04/01 06:25:31;;;;;;;7.68;1.40;;;;;;;;;;5051295;28;20578;-68
2023/04/01 06:28:08;;;;;;;1.25;1.00;;;;;;;;;;5051008;28;20189;-68
2023/04/01 06:30:40;;;;;;;2.58;1.10;;;;;;;;;;5053526;28;20199;-69
2023/04/01 06:33:24;;;;;;;3.55;1.25;;;;;;;;;;5051001;28;20638;-69
2023/04/01 06:35:57;;;;;;;8.68;1.30;;;;;;;;;;5050185;28;20208;-67
2023/04/01 06:38:37;;;;;;;3.38;1.23;;;;;;;;;;5067582;28;20596;-69
2023/04/01 06:41:24;;;;;;;1.95;1.17;;;;;;;;;;5067758;28;20211;-68
2023/04/01 06:43:59;;;;;;;4.90;0.98;;;;;;;;;;5070995;28;20188;-68
2023/04/01 06:46:49;;;;;;;6.85;1.13;;;;;;;;;;5071136;28;20669;-68
2023/04/01 06:49:39;;;;;;;2.25;1.17;;;;;;;;;;5058412;28;20184;-68
2023/04/01 06:52:48;;;;;;;1.30;1.00;;;;;;;;;;5000144;28;20239;-68
2023/04/01 06:55:38;;;;;;;3.67;1.10;;;;;;;;;;5059955;28;20216;-68
2023/04/01 06:58:22;;;;;;;2.55;0.90;;;;;;;;;;5062126;28;20188;-69
2023/04/01 07:00:53;;;;;;;2.78;1.00;;;;;;;;;;5055185;28;20544;-68
2023/04/01 07:03:23;;;;;;;1.30;1.10;;;;;;;;;;5053632;28;20201;-68
2023/04/01 07:05:53;;;;;;;4.40;1.10;;;;;;;;;;5052039;28;20212;-68
2023/04/01 07:08:26;;;;;;;1.90;1.27;;;;;;;;;;5070687;28;20184;-67
2023/04/01 07:11:01;;;;;;;2.45;1.05;;;;;;;;;;5070285;28;20663;-68
2023/04/01 07:13:51;;;;;;;3.88;1.58;;;;;;;;;;5070755;28;20203;-68
2023/04/01 07:16:24;;;;;;;2.58;1.05;;;;;;;;;;5070718;28;20886;-67
2023/04/01 07:18:56;;;;;;;2.25;0.93;;;;;;;;;;5070502;28;20238;-68
2023/04/01 07:21:28;;;;;;;1.83;0.98;;;;;;;;;;5070499;28;20216;-67
2023/04/01 07:24:02;;;;;;;2.15;0.70;;;;;;;;;;5070653;28;20198;-68
2023/04/01 07:26:41;;;;;;;1.30;0.88;;;;;;;;;;5053919;28;20557;-68
2023/04/01 07:29:13;;;;;;;4.20;1.05;;;;;;;;;;5071474;28;20188;-68
2023/04/01 07:32:12;;;;;;;3.17;1.05;;;;;;;;;;5071204;28;20264;-68
2023/04/01 07:34:46;;;;;;;3.58;1.75;;;;;;;;;;5070702;28;20188;-68
2023/04/01 07:37:20;;;;;;;2.22;0.73;;;;;;;;;;5070321;28;20192;-70
2023/04/01 07:39:57;;;;;;;5.13;1.20;;;;;;;;;;5070945;28;20297;-69
2023/04/01 07:42:42;;;;;;;1.13;0.90;;;;;;;;;;5071256;28;20552;-68
2023/04/01 07:45:16;;;;;;;3.90;0.80;;;;;;;;;;5071390;28;20235;-68
2023/04/01 07:47:56;;;;;;;3.53;1.20;;;;;;;;;;5069854;28;20289;-69
2023/04/01 07:50:27;;;;;;;1.98;0.90;;;;;;;;;;5054953;28;20184;-69
2023/04/01 07:53:03;;;;;;;2.53;0.90;;;;;;;;;;5063160;28;20197;-69
2023/04/01 07:55:36;;;;;;;5.47;2.65;;;;;;;;;;5070467;28;20190;-68
2023/04/01 07:58:12;;;;;;;4.50;1.10;;;;;;;;;;5058295;28;20208;-69
2023/04/01 08:00:46;;;;;;;3.22;1.10;;;;;;;;;;5070006;28;20305;-67
2023/04/01 08:03:30;;;;;;;5.15;1.40;;;;;;;;;;5068704;28;20645;-68
2023/04/01 08:06:01;;;;;;;6.70;2.40;;;;;;;;;;5080092;28;20191;-67
2023/04/01 08:08:37;;;;;;;1.55;1.27;;;;;;;;;;5074868;28;20278;-69
2023/04/01 08:11:30;;;;;;;1.92;1.08;;;;;;;;;;5067173;28;20254;-69
2023/04/01 08:14:21;;;;;;;1.52;1.42;;;;;;;;;;5051492;28;20669;-70
2023/04/01 08:17:30;;;;;;;1.50;1.40;;;;;;;;;;5050063;28;20208;-68
2023/04/01 08:20:09;;;;;;;2.35;1.30;;;;;;;;;;5051098;28;20220;-68
2023/04/01 08:22:41;;;;;;;2.78;1.10;;;;;;;;;;5051215;28;20267;-69
2023/04/01 08:25:19;;;;;;;2.10;1.00;;;;;;;;;;5068663;28;20184;-69
2023/04/01 08:27:50;;;;;;;2.30;1.08;;;;;;;;;;5068972;28;20234;-67
2023/04/01 08:30:20;;;;;;;3.65;1.25;;;;;;;;;;5069755;28;20221;-69
2023/04/01 08:32:51;;;;;;;1.60;1.05;;;;;;;;;;5061348;28;20203;-67
2023/04/01 08:35:23;;;;;;;1.17;0.80;;;;;;;;;;5071010;28;20626;-69
2023/04/01 08:37:54;;;;;;;1.10;0.88;;;;;;;;;;5059750;28;20199;-68
2023/04/01 08:40:43;;;;;;;2.97;1.10;;;;;;;;;;5049152;28;20208;-69
2023/04/01 08:43:17;;;;;;;0.90;0.70;;;;;;;;;;5062551;28;20211;-69
2023/04/01 08:45:51;;;;;;;2.65;1.25;;;;;;;;;;5032484;28;20258;-67
2023/04/01 08:48:28;;;;;;;3.90;0.98;;;;;;;;;;5049733;28;20197;-68
2023/04/01 08:51:10;;;;;;;1.58;0.98;;;;;;;;;;5051860;28;20184;-69
2023/04/01 08:53:48;;;;;;;0.93;0.90;;;;;;;;;;5069394;28;20196;-67
2023/04/01 08:56:22;;;;;;;2.42;1.10;;;;;;;;;;5062772;28;20193;-68
2023/04/01 08:59:05;;;;;;;1.80;0.82;;;;;;;;;;5049633;28;20193;-68
2023/04/01 09:01:56;;;;;;;0.80;0.77;;;;;;;;;;5048896;28;20212;-68
2023/04/01 09:04:51;;;;;;;1.00;0.80;;;;;;;;;;5048934;28;20188;-70
2023/04/01 09:07:31;;;;;;;2.05;0.70;;;;;;;;;;5050391;28;20192;-68
2023/04/01 09:10:12;;;;;;;1.60;1.08;;;;;;;;;;5065972;28;20664;-68
2023/04/01 09:12:56;;;;;;;1.98;0.95;;;;;;;;;;5066414;28;20184;-69
2023/04/01 09:15:39;;;;;;;2.15;0.90;;;;;;;;;;5037838;28;20200;-68
2023/04/01 09:18:17;;;;;;;1.65;0.70;;;;;;;;;;5057133;28;20204;-68
2023/04/01 09:21:00;;;;;;;0.80;0.70;;;;;;;;;;5057553;28;20224;-68
2023/04/01 09:23:42;;;;;;;0.70;0.70;;;;;;;;;;5072965;28;20184;-69
2023/04/01 09:26:19;;;;;;;1.00;0.80;;;;;;;;;;5073361;28;20548;-68
2023/04/01 09:28:52;;;;;;;0.95;0.95;;;;;;;;;;5056726;28;20253;-67
2023/04/01 09:31:27;;;;;;;1.10;0.80;;;;;;;;;;5053696;28;20189;-68
2023/04/01 09:34:36;;;;;;;1.38;0.90;;;;;;;;;;5072258;28;20226;-69
2023/04/01 09:37:19;;;;;;;1.65;0.90;;;;;;;;;;5029416;28;20561;-68
2023/04/01 09:39:54;;;;;;;0.80;0.70;;;;;;;;;;5054869;28;20628;-68
2023/04/01 09:42:33;;;;;;;0.90;0.90;;;;;;;;;;5070650;28;20191;-69
2023/04/01 09:45:18;;;;;;;1.00;0.90;;;;;;;;;;5055129;28;20232;-69
2023/04/01 09:47:54;;;;;;;2.10;0.98;;;;;;;;;;5055329;28;20192;-69
2023/04/01 09:50:35;;;;;;;0.90;0.88;;;;;;;;;;5053466;28;20188;-68
2023/04/01 09:53:08;;;;;;;2.47;0.88;;;;;;;;;;5035661;28;20614;-69
2023/04/01 09:55:52;;;;;;;1.20;0.80;;;;;;;;;;5052195;28;20627;-68
2023/04/01 09:58:41;;;;;;;1.30;0.80;;;;;;;;;;5053250;28;20403;-68
2023/04/01 10:01:43;;;;;;;2.45;0.70;;;;;;;;;;5049085;28;20226;-67
2023/04/01 10:04:31;;;;;;;0.77;0.73;;;;;;;;;;5057313;28;20615;-67
2023/04/01 10:07:25;;;;;;;2.42;0.93;;;;;;;;;;5023995;28;20207;-68
2023/04/01 10:10:23;;;;;;;3.08;0.95;;;;;;;;;;5053402;28;20200;-68
2023/04/01 10:13:07;;;;;;;0.75;0.75;;;;;;;;;;5067892;28;20201;-68
2023/04/01 10:16:05;;;;;;;0.93;0.93;;;;;;;;;;5050084;28;20200;-69
2023/04/01 10:18:50;;;;;;;2.70;1.00;;;;;;;;;;5053430;28;20192;-67
2023/04/01 10:21:37;;;;;;;2.03;0.80;;;;;;;;;;5065757;28;20224;-68
2023/04/01 10:24:23;;;;;;;1.67;0.70;;;;;;;;;;5062677;28;20180;-68
2023/04/01 10:27:23;;;;;;;0.80;0.80;;;;;;;;;;5069049;28;20571;-68
2023/04/01 10:30:21;;;;;;;1.77;0.80;;;;;;;;;;5063167;28;20200;-67
2023/04/01 10:33:14;;;;;;;0.75;0.75;;;;;;;;;;5068558;28;20211;-68
2023/04/01 10:36:07;;;;;;;0.90;0.80;;;;;;;;;;5062216;28;20207;-68
2023/04/01 10:38:50;;;;;;;2.08;0.63;;;;;;;;;;5053142;28;20200;-68
2023/04/01 10:41:37;;;;;;;1.65;0.80;;;;;;;;;;5052226;28;20234;-68
2023/04/01 10:44:48;;;;;;;2.20;0.80;;;;;;;;;;5035233;28;20200;-66
2023/04/01 10:47:42;;;;;;;0.88;0.80;;;;;;;;;;5070631;28;20670;-68
2023/04/01 10:50:21;;;;;;;1.33;0.90;;;;;;;;;;5058787;28;20195;-68
2023/04/01 10:53:12;;;;;;;1.17;0.95;;;;;;;;;;5070914;28;20494;-69
2023/04/01 10:56:25;;;;;;;0.70;0.70;;;;;;;;;;5014879;28;20205;-68
2023/04/01 10:59:29;;;;;;;1.00;0.80;;;;;;;;;;5056007;28;20191;-68
2023/04/01 11:02:36;;;;;;;0.80;0.80;;;;;;;;;;5061835;28;20208;-67
2023/04/01 11:05:42;;;;;;;2.15;0.98;;;;;;;;;;5052505;28;20285;-68
2023/04/01 11:08:42;;;;;;;1.10;0.80;;;;;;;;;;5052372;28;20192;-67
2023/04/01 11:11:26;;;;;;;0.90;0.70;;;;;;;;;;5072041;28;20212;-67
2023/04/01 11:14:09;;;;;;;3.13;0.93;;;;;;;;;;5015104;28;20200;-67
2023/04/01 11:16:56;;;;;;;1.27;0.88;;;;;;;;;;5040461;28;20234;-68
2023/04/01 11:19:43;;;;;;;2.45;0.80;;;;;;;;;;5052007;28;20219;-68
2023/04/01 11:22:20;;;;;;;0.70;0.63;;;;;;;;;;5071648;28;20204;-68
2023/04/01 11:25:02;;;;;;;0.80;0.68;;;;;;;;;;5074611;28;20664;-66
2023/04/01 11:27:51;;;;;;;0.82;0.63;;;;;;;;;;5078662;28;20199;-67
2023/04/01 11:30:33;;;;;;;1.00;0.70;;;;;;;;;;5073489;28;20619;-68
2023/04/01 11:33:04;;;;;;;1.20;0.95;;;;;;;;;;5069466;28;20188;-68
2023/04/01 11:35:54;;;;;;;0.90;0.80;;;;;;;;;;5069055;28;20196;-68
2023/04/01 11:38:32;;;;;;;1.42;0.80;;;;;;;;;;5067300;28;20192;-69
2023/04/01 11:41:25;;;;;;;1.52;1.00;;;;;;;;;;5070212;28;20209;-68
2023/04/01 11:44:23;;;;;;;0.93;0.80;;;;;;;;;;5052308;28;20269;-67
2023/04/01 11:47:10;;;;;;;1.02;1.00;;;;;;;;;;5067373;28;20195;-67
2023/04/01 11:49:44;;;;;;;2.80;0.80;;;;;;;;;;5069762;28;20195;-67
2023/04/01 11:52:28;;;;;;;1.15;0.90;;;;;;;;;;5070526;28;20184;-68
2023/04/01 11:55:04;;;;;;;3.08;1.10;;;;;;;;;;5067229;28;20696;-68
2023/04/01 11:57:40;;;;;;;0.90;0.85;;;;;;;;;;5077965;28;20206;-68
2023/04/01 12:00:21;;;;;;;1.13;1.08;;;;;;;;;;5076249;28;20187;-67
2023/04/01 12:02:57;;;;;;;0.80;0.80;;;;;;;;;;5075245;28;20203;-69
2023/04/01 12:05:36;;;;;;;1.63;0.95;;;;;;;;;;5068760;28;20196;-66
2023/04/01 12:08:11;;;;;;;1.00;0.90;;;;;;;;;;5071298;28;20194;-68
2023/04/01 12:10:41;;;;;;;1.90;1.05;;;;;;;;;;5058329;28;20184;-68
2023/04/01 12:13:18;;;;;;;0.95;0.80;;;;;;;;;;5062064;28;20214;-68
2023/04/01 12:15:54;;;;;;;1.10;1.00;;;;;;;;;;5091690;28;20187;-67
2023/04/01 12:18:25;;;;;;;0.80;0.80;;;;;;;;;;5058593;28;20654;-67
2023/04/01 12:20:56;;;;;;;3.35;1.02;;;;;;;;;;5084788;28;20231;-67
2023/04/01 12:23:38;;;;;;;1.05;1.00;;;;;;;;;;5058588;28;20192;-67
2023/04/01 12:26:25;;;;;;;0.98;0.90;;;;;;;;;;5058763;28;20654;-67
2023/04/01 12:29:04;;;;;;;1.10;1.00;;;;;;;;;;5056740;28;20200;-66
2023/04/01 12:31:36;;;;;;;0.90;0.90;;;;;;;;;;5058271;28;20233;-68
2023/04/01 12:34:16;;;;;;;1.10;1.00;;;;;;;;;;5069375;28;20571;-69
2023/04/01 12:36:50;;;;;;;1.83;0.90;;;;;;;;;;5070283;28;20203;-67
2023/04/01 12:39:31;;;;;;;1.77;1.10;;;;;;;;;;5058344;28;20225;-68
2023/04/01 12:42:05;;;;;;;1.05;1.02;;;;;;;;;;5062247;28;20214;-68
2023/04/01 12:44:49;;;;;;;1.92;1.45;;;;;;;;;;5064224;28;20273;-68
2023/04/01 12:47:32;;;;;;;1.05;1.05;;;;;;;;;;5043013;28;20212;-66
2023/04/01 12:50:27;;;;;;;1.58;1.20;;;;;;;;;;5073332;28;20200;-69
2023/04/01 12:53:11;;;;;;;0.80;0.80;;;;;;;;;;5038282;28;20206;-68
2023/04/01 12:55:42;;;;;;;3.80;1.33;;;;;;;;;;5062215;28;20553;-69
2023/04/01 12:58:25;;;;;;;2.58;1.13;;;;;;;;;;5062975;28;20204;-69
2023/04/01 13:01:05;;;;;;;1.10;1.00;;;;;;;;;;5052655;28;20670;-68
2023/04/01 13:03:43;;;;;;;1.00;1.00;;;;;;;;;;5056569;28;20269;-67
2023/04/01 13:06:22;;;;;;;1.77;1.10;;;;;;;;;;5061924;28;20241;-67
2023/04/01 13:08:56;;;;;;;1.05;1.05;;;;;;;;;;5058425;28;20210;-67
2023/04/01 13:11:33;;;;;;;3.78;1.30;;;;;;;;;;5061106;28;20670;-69
2023/04/01 13:14:12;;;;;;;2.63;1.30;;;;;;;;;;5071610;28;20213;-69
2023/04/01 13:16:41;;;;;;;1.63;1.15;;;;;;;;;;5062595;28;20204;-69
2023/04/01 13:19:10;;;;;;;0.95;0.90;;;;;;;;;;5072436;28;20204;-67
2023/04/01 13:21:42;;;;;;;3.63;1.13;;;;;;;;;;5073119;28;20221;-68
2023/04/01 13:24:19;;;;;;;1.30;1.20;;;;;;;;;;5056838;28;20213;-69
2023/04/01 13:26:54;;;;;;;0.80;0.80;;;;;;;;;;5071955;28;20200;-68
2023/04/01 13:29:25;;;;;;;1.00;1.00;;;;;;;;;;5060220;28;20207;-69
2023/04/01 13:32:02;;;;;;;1.90;1.25;;;;;;;;;;5051533;28;20196;-69
2023/04/01 13:34:38;;;;;;;0.85;0.80;;;;;;;;;;5052792;28;20253;-69
2023/04/01 13:37:13;;;;;;;2.22;0.80;;;;;;;;;;5057938;28;20196;-68
2023/04/01 13:39:52;;;;;;;2.65;0.88;;;;;;;;;;5067759;28;20199;-68
2023/04/01 13:42:26;;;;;;;1.13;0.65;;;;;;;;;;5071910;28;20218;-69
2023/04/01 13:44:58;;;;;;;1.27;0.80;;;;;;;;;;5072981;28;20224;-69
2023/04/01 13:47:34;;;;;;;0.93;0.80;;;;;;;;;;5070355;28;20188;-68
2023/04/01 13:50:21;;;;;;;0.98;0.88;;;;;;;;;;5073144;28;20642;-69
2023/04/01 13:53:03;;;;;;;1.30;1.20;;;;;;;;;;5071625;28;20542;-69
2023/04/01 13:55:36;;;;;;;9.70;8.70;;;;;;;;;;5071571;28;20528;-69
2023/04/01 13:58:12;;;;;;;68.75;47.13;;;;;;;;;;5069714;28;20188;-68
2023/04/01 14:00:46;;;;;;;73.55;49.85;;;;;;;;;;5070949;28;20195;-70
2023/04/01 14:03:23;;;;;;;75.47;54.38;;;;;;;;;;5066394;28;20204;-68
2023/04/01 14:05:55;;;;;;;19.63;15.43;;;;;;;;;;5066723;28;20201;-69
2023/04/01 14:08:32;;;;;;;6.68;5.15;;;;;;;;;;5069698;28;20277;-67
2023/04/01 14:11:09;;;;;;;14.75;13.15;;;;;;;;;;5071980;28;20657;-69
2023/04/01 14:13:43;;;;;;;24.55;20.90;;;;;;;;;;5058972;28;20200;-68
2023/04/01 14:16:23;;;;;;;19.10;13.65;;;;;;;;;;5056125;28;20197;-68
2023/04/01 14:19:02;;;;;;;10.52;8.25;;;;;;;;;;5054131;28;20196;-68
2023/04/01 14:21:35;;;;;;;24.95;17.30;;;;;;;;;;5064263;28;20260;-69
2023/04/01 14:24:10;;;;;;;33.55;22.92;;;;;;;;;;5072629;28;20211;-69
2023/04/01 14:26:57;;;;;;;34.63;23.70;;;;;;;;;;5078251;28;20188;-69
2023/04/01 14:29:32;;;;;;;15.50;11.27;;;;;;;;;;5079139;28;20721;-69
2023/04/01 14:32:03;;;;;;;40.35;30.85;;;;;;;;;;5081738;28;20196;-69
2023/04/01 14:34:46;;;;;;;10.07;9.07;;;;;;;;;;5081507;28;20191;-69
2023/04/01 14:37:22;;;;;;;9.07;8.18;;;;;;;;;;5074146;28;20226;-69
2023/04/01 14:40:01;;;;;;;8.02;7.22;;;;;;;;;;5084447;28;20244;-67
2023/04/01 14:42:40;;;;;;;10.23;9.20;;;;;;;;;;5078815;28;20211;-69
2023/04/01 14:45:26;;;;;;;8.52;7.60;;;;;;;;;;5079116;28;20223;-67
2023/04/01 14:47:56;;;;;;;2.15;2.05;;;;;;;;;;5078162;28;20552;-67
2023/04/01 14:50:26;;;;;;;0.70;0.70;;;;;;;;;;5064222;28;20557;-67
2023/04/01 14:52:58;;;;;;;2.38;1.10;;;;;;;;;;5071813;28;20199;-68
2023/04/01 14:55:33;;;;;;;0.80;0.80;;;;;;;;;;5074207;28;20189;-68
2023/04/01 14:58:06;;;;;;;0.80;0.80;;;;;;;;;;5077873;28;20660;-69
2023/04/01 15:00:43;;;;;;;2.17;0.90;;;;;;;;;;5078174;28;20192;-67
2023/04/01 15:03:16;;;;;;;1.10;1.00;;;;;;;;;;5059900;28;21367;-67
2023/04/01 15:05:49;;;;;;;2.03;0.90;;;;;;;;;;5057839;28;20639;-68
2023/04/01 15:08:19;;;;;;;1.30;0.98;;;;;;;;;;5066093;28;20192;-68
2023/04/01 15:10:55;;;;;;;1.55;0.90;;;;;;;;;;5071377;28;20237;-68
2023/04/01 15:13:31;;;;;;;1.52;1.42;;;;;;;;;;5069462;28;20202;-68
2023/04/01 15:16:11;;;;;;;1.98;0.90;;;;;;;;;;5071956;28;20192;-68
2023/04/01 15:18:44;;;;;;;1.27;0.80;;;;;;;;;;5081201;28;20198;-67
2023/04/01 15:21:21;;;;;;;2.63;1.10;;;;;;;;;;5064946;28;20216;-67
2023/04/01 15:23:57;;;;;;;1.15;1.00;;;;;;;;;;5053249;28;20212;-68
2023/04/01 15:26:44;;;;;;;0.98;0.90;;;;;;;;;;5062133;28;20192;-68
2023/04/01 15:29:23;;;;;;;1.05;0.80;;;;;;;;;;5074662;28;20188;-68
2023/04/01 15:31:57;;;;;;;2.88;1.55;;;;;;;;;;5077172;28;20195;-67
2023/04/01 15:34:30;;;;;;;0.80;0.80;;;;;;;;;;5073737;28;20192;-67